Uçuş Emniyeti

16 kişi hayatını kaybetti

Hindistan’da dün gece meydana gelen uçak kazasında, Dubai’den havalanan Air India Express Havayolları’na ait Boeing 737-800 tipi yolcu uçağı Karipur Havalimanı inişte pistten çıkmıştı. İkiye ayrılan uçakta ölü sayısı 16’ya yükseldi. 123 yolcu ve mürettebat da yaralandı.

Sabah saatlerinden itibaren servis edilmeye başlayan fotoğraflar, yaşanan trajedinin ne kadar büyük olduğunu ortaya koydu. İniş, toplam 2845 metre uzunluğunda 10/28 pistine planlanmıştı.

Her iki yöndende ILS ve VOR yaklaşması mevcut olan piste ADS-B Verilerine göre, kazadan 20 dakika önce pilotlar 28 pist başı için yaklaşma planladı. Ancak uçak 2700 feet irtifadayken pilotlar pas geçme kararı aldı.

DİĞER PİSTE İNİŞ PLANLANDI

İkinci denemesi 10 pist başı için planlandı. Ancak kaza anındaki hava durumu verilerine göre alçalmada uçağın tamamen oraj içinde kaldığı görülüyor. Ancak hava durumu:

Kaza anı hava raporu: VOCL 071430Z 24011KT 2000 -RA SCT003 SCT012 FEW025CB OVC080 24/23 Q1009 TEMPO 1500 -RA BR =

2010 yılı Mayıs ayında Air India Express’e ait bir yolcu uçağı daha Hindistan’daki Mangalore Havalimanı’nda pisten çıkmış ve kazada 158 kişi hayatını kaybetmişti.

Etiketler

İlgili Makaleler

Bir cevap yazın

E-posta hesabınız yayımlanmayacak. Gerekli alanlar * ile işaretlenmişlerdir

Başa dön tuşu
Kapalı
Kapalı
Copy link
Powered by Social Snap